sensor_id;sensor_type;location;lat;lon;timestamp;P1;durP1;ratioP1;P2;durP2;ratioP2
48623;SDS011;34422;45.802;16.114;2023-07-08T00:00:24;14.05;;;8.18;;
48623;SDS011;34422;45.802;16.114;2023-07-08T00:02:51;16.38;;;8.30;;
48623;SDS011;34422;45.802;16.114;2023-07-08T00:05:20;12.98;;;7.82;;
48623;SDS011;34422;45.802;16.114;2023-07-08T00:07:49;12.43;;;7.35;;
48623;SDS011;34422;45.802;16.114;2023-07-08T00:10:20;11.00;;;7.35;;
48623;SDS011;34422;45.802;16.114;2023-07-08T00:12:58;10.98;;;7.22;;
48623;SDS011;34422;45.802;16.114;2023-07-08T00:15:29;13.55;;;7.35;;
48623;SDS011;34422;45.802;16.114;2023-07-08T00:18:09;12.27;;;7.45;;
48623;SDS011;34422;45.802;16.114;2023-07-08T00:23:09;12.25;;;8.25;;
48623;SDS011;34422;45.802;16.114;2023-07-08T00:25:36;12.35;;;8.15;;
48623;SDS011;34422;45.802;16.114;2023-07-08T00:30:39;11.70;;;6.95;;
48623;SDS011;34422;45.802;16.114;2023-07-08T00:33:06;11.35;;;7.80;;
48623;SDS011;34422;45.802;16.114;2023-07-08T00:35:34;10.90;;;7.40;;
48623;SDS011;34422;45.802;16.114;2023-07-08T00:43:50;12.88;;;8.27;;
48623;SDS011;34422;45.802;16.114;2023-07-08T00:51:36;26.80;;;18.67;;
48623;SDS011;34422;45.802;16.114;2023-07-08T00:54:15;66.28;;;40.38;;
48623;SDS011;34422;45.802;16.114;2023-07-08T00:59:32;98.13;;;60.33;;
48623;SDS011;34422;45.802;16.114;2023-07-08T01:02:01;107.20;;;65.93;;
48623;SDS011;34422;45.802;16.114;2023-07-08T01:04:49;101.72;;;62.05;;
48623;SDS011;34422;45.802;16.114;2023-07-08T01:07:22;99.10;;;57.03;;
48623;SDS011;34422;45.802;16.114;2023-07-08T01:09:53;95.90;;;58.55;;
48623;SDS011;34422;45.802;16.114;2023-07-08T01:12:34;70.85;;;43.72;;
48623;SDS011;34422;45.802;16.114;2023-07-08T01:15:06;87.22;;;57.53;;
48623;SDS011;34422;45.802;16.114;2023-07-08T01:17:34;97.43;;;61.90;;
48623;SDS011;34422;45.802;16.114;2023-07-08T01:20:02;92.80;;;62.80;;
48623;SDS011;34422;45.802;16.114;2023-07-08T01:22:36;81.40;;;56.13;;
48623;SDS011;34422;45.802;16.114;2023-07-08T01:25:04;79.10;;;53.22;;
48623;SDS011;34422;45.802;16.114;2023-07-08T01:27:33;87.10;;;55.17;;
48623;SDS011;34422;45.802;16.114;2023-07-08T01:30:05;79.72;;;51.88;;
48623;SDS011;34422;45.802;16.114;2023-07-08T01:32:34;64.90;;;43.63;;
48623;SDS011;34422;45.802;16.114;2023-07-08T01:35:18;63.85;;;43.80;;
48623;SDS011;34422;45.802;16.114;2023-07-08T01:37:48;61.47;;;43.65;;
48623;SDS011;34422;45.802;16.114;2023-07-08T01:42:46;75.03;;;51.50;;
48623;SDS011;34422;45.802;16.114;2023-07-08T01:45:14;73.93;;;52.00;;
48623;SDS011;34422;45.802;16.114;2023-07-08T01:47:45;84.35;;;54.45;;
48623;SDS011;34422;45.802;16.114;2023-07-08T01:50:17;81.47;;;58.10;;
48623;SDS011;34422;45.802;16.114;2023-07-08T01:52:45;88.78;;;62.10;;
48623;SDS011;34422;45.802;16.114;2023-07-08T01:55:15;80.13;;;55.95;;
48623;SDS011;34422;45.802;16.114;2023-07-08T01:57:42;82.95;;;61.42;;
48623;SDS011;34422;45.802;16.114;2023-07-08T02:00:09;82.63;;;59.92;;
48623;SDS011;34422;45.802;16.114;2023-07-08T02:02:37;85.70;;;58.58;;
48623;SDS011;34422;45.802;16.114;2023-07-08T02:05:04;81.72;;;58.75;;
48623;SDS011;34422;45.802;16.114;2023-07-08T02:07:31;99.90;;;70.50;;
48623;SDS011;34422;45.802;16.114;2023-07-08T02:09:58;105.07;;;78.80;;
48623;SDS011;34422;45.802;16.114;2023-07-08T02:12:31;94.32;;;68.60;;
48623;SDS011;34422;45.802;16.114;2023-07-08T02:15:00;86.88;;;61.70;;
48623;SDS011;34422;45.802;16.114;2023-07-08T02:17:35;85.30;;;51.33;;
48623;SDS011;34422;45.802;16.114;2023-07-08T02:20:14;56.58;;;41.55;;
48623;SDS011;34422;45.802;16.114;2023-07-08T02:22:44;48.40;;;33.22;;
48623;SDS011;34422;45.802;16.114;2023-07-08T02:25:24;42.38;;;29.35;;
48623;SDS011;34422;45.802;16.114;2023-07-08T02:27:55;33.08;;;22.00;;
48623;SDS011;34422;45.802;16.114;2023-07-08T02:30:30;33.08;;;23.10;;
48623;SDS011;34422;45.802;16.114;2023-07-08T02:33:06;26.52;;;18.48;;
48623;SDS011;34422;45.802;16.114;2023-07-08T02:35:49;28.45;;;19.48;;
48623;SDS011;34422;45.802;16.114;2023-07-08T02:38:16;26.42;;;17.95;;
48623;SDS011;34422;45.802;16.114;2023-07-08T02:40:46;26.37;;;17.90;;
48623;SDS011;34422;45.802;16.114;2023-07-08T02:43:16;24.77;;;18.55;;
48623;SDS011;34422;45.802;16.114;2023-07-08T02:46:17;27.77;;;19.77;;
48623;SDS011;34422;45.802;16.114;2023-07-08T02:48:54;25.70;;;18.52;;
48623;SDS011;34422;45.802;16.114;2023-07-08T02:51:31;26.13;;;18.27;;
48623;SDS011;34422;45.802;16.114;2023-07-08T02:54:04;25.73;;;17.25;;
48623;SDS011;34422;45.802;16.114;2023-07-08T02:56:39;21.40;;;16.02;;
48623;SDS011;34422;45.802;16.114;2023-07-08T02:59:18;20.60;;;15.10;;
48623;SDS011;34422;45.802;16.114;2023-07-08T03:01:59;22.30;;;16.00;;
48623;SDS011;34422;45.802;16.114;2023-07-08T03:04:34;20.75;;;15.05;;
48623;SDS011;34422;45.802;16.114;2023-07-08T03:07:10;20.40;;;14.70;;
48623;SDS011;34422;45.802;16.114;2023-07-08T03:09:46;22.45;;;14.55;;
48623;SDS011;34422;45.802;16.114;2023-07-08T03:12:13;23.98;;;13.93;;
48623;SDS011;34422;45.802;16.114;2023-07-08T03:14:58;19.38;;;12.88;;
48623;SDS011;34422;45.802;16.114;2023-07-08T03:17:35;23.83;;;15.75;;
48623;SDS011;34422;45.802;16.114;2023-07-08T03:20:05;23.13;;;15.57;;
48623;SDS011;34422;45.802;16.114;2023-07-08T03:22:44;23.10;;;16.25;;
48623;SDS011;34422;45.802;16.114;2023-07-08T03:25:24;22.23;;;16.17;;
48623;SDS011;34422;45.802;16.114;2023-07-08T03:28:03;21.90;;;14.57;;
48623;SDS011;34422;45.802;16.114;2023-07-08T03:30:53;22.10;;;13.85;;
48623;SDS011;34422;45.802;16.114;2023-07-08T03:33:25;17.25;;;13.57;;
48623;SDS011;34422;45.802;16.114;2023-07-08T03:36:11;19.08;;;13.13;;
48623;SDS011;34422;45.802;16.114;2023-07-08T03:39:17;22.80;;;13.35;;
48623;SDS011;34422;45.802;16.114;2023-07-08T03:44:39;21.95;;;12.20;;
48623;SDS011;34422;45.802;16.114;2023-07-08T03:47:29;16.92;;;11.88;;
48623;SDS011;34422;45.802;16.114;2023-07-08T03:50:13;16.58;;;11.43;;
48623;SDS011;34422;45.802;16.114;2023-07-08T03:53:04;19.67;;;11.82;;
48623;SDS011;34422;45.802;16.114;2023-07-08T03:55:46;17.85;;;11.20;;
48623;SDS011;34422;45.802;16.114;2023-07-08T03:58:16;17.40;;;11.50;;
48623;SDS011;34422;45.802;16.114;2023-07-08T04:00:46;17.40;;;12.40;;
48623;SDS011;34422;45.802;16.114;2023-07-08T04:03:16;16.52;;;11.63;;
48623;SDS011;34422;45.802;16.114;2023-07-08T04:05:51;15.57;;;10.60;;
48623;SDS011;34422;45.802;16.114;2023-07-08T04:08:36;14.95;;;10.18;;
48623;SDS011;34422;45.802;16.114;2023-07-08T04:11:05;17.03;;;10.93;;
48623;SDS011;34422;45.802;16.114;2023-07-08T04:13:33;16.60;;;10.02;;
48623;SDS011;34422;45.802;16.114;2023-07-08T04:16:01;14.52;;;8.95;;
48623;SDS011;34422;45.802;16.114;2023-07-08T04:18:34;16.58;;;9.32;;
48623;SDS011;34422;45.802;16.114;2023-07-08T04:21:08;16.13;;;9.50;;
48623;SDS011;34422;45.802;16.114;2023-07-08T04:23:38;13.02;;;7.85;;
48623;SDS011;34422;45.802;16.114;2023-07-08T04:26:08;15.98;;;8.23;;
48623;SDS011;34422;45.802;16.114;2023-07-08T04:28:42;13.45;;;8.32;;
48623;SDS011;34422;45.802;16.114;2023-07-08T04:31:21;11.80;;;8.23;;
48623;SDS011;34422;45.802;16.114;2023-07-08T04:34:14;11.38;;;7.35;;
48623;SDS011;34422;45.802;16.114;2023-07-08T04:36:47;12.77;;;7.00;;
48623;SDS011;34422;45.802;16.114;2023-07-08T04:39:23;11.90;;;7.32;;
48623;SDS011;34422;45.802;16.114;2023-07-08T04:41:53;11.65;;;7.47;;
48623;SDS011;34422;45.802;16.114;2023-07-08T04:44:22;11.25;;;7.07;;
48623;SDS011;34422;45.802;16.114;2023-07-08T04:46:51;12.88;;;8.55;;
48623;SDS011;34422;45.802;16.114;2023-07-08T04:49:21;11.02;;;7.75;;
48623;SDS011;34422;45.802;16.114;2023-07-08T04:51:50;12.68;;;6.40;;
48623;SDS011;34422;45.802;16.114;2023-07-08T04:54:37;11.45;;;6.78;;
48623;SDS011;34422;45.802;16.114;2023-07-08T04:57:13;12.27;;;7.38;;
48623;SDS011;34422;45.802;16.114;2023-07-08T04:59:49;10.23;;;6.72;;
48623;SDS011;34422;45.802;16.114;2023-07-08T05:02:30;10.00;;;6.88;;
48623;SDS011;34422;45.802;16.114;2023-07-08T05:05:03;11.32;;;6.65;;
48623;SDS011;34422;45.802;16.114;2023-07-08T05:07:49;11.65;;;7.25;;
48623;SDS011;34422;45.802;16.114;2023-07-08T05:13:30;11.13;;;6.75;;
48623;SDS011;34422;45.802;16.114;2023-07-08T05:16:34;10.45;;;6.80;;
48623;SDS011;34422;45.802;16.114;2023-07-08T05:19:07;10.93;;;6.53;;
48623;SDS011;34422;45.802;16.114;2023-07-08T05:21:49;12.50;;;6.32;;
48623;SDS011;34422;45.802;16.114;2023-07-08T05:24:20;10.48;;;7.15;;
48623;SDS011;34422;45.802;16.114;2023-07-08T05:26:49;10.30;;;6.47;;
48623;SDS011;34422;45.802;16.114;2023-07-08T05:29:19;12.13;;;6.05;;
48623;SDS011;34422;45.802;16.114;2023-07-08T05:31:54;10.43;;;6.55;;
48623;SDS011;34422;45.802;16.114;2023-07-08T05:34:27;8.80;;;6.10;;
48623;SDS011;34422;45.802;16.114;2023-07-08T05:37:00;10.90;;;6.72;;
48623;SDS011;34422;45.802;16.114;2023-07-08T05:39:54;9.48;;;6.28;;
48623;SDS011;34422;45.802;16.114;2023-07-08T05:48:29;10.50;;;6.38;;
48623;SDS011;34422;45.802;16.114;2023-07-08T05:51:01;9.55;;;5.45;;
48623;SDS011;34422;45.802;16.114;2023-07-08T05:53:40;9.00;;;6.03;;
48623;SDS011;34422;45.802;16.114;2023-07-08T05:56:09;9.57;;;6.25;;
48623;SDS011;34422;45.802;16.114;2023-07-08T05:58:51;8.90;;;6.32;;
48623;SDS011;34422;45.802;16.114;2023-07-08T06:01:36;10.10;;;6.20;;
48623;SDS011;34422;45.802;16.114;2023-07-08T06:04:23;10.32;;;6.50;;
48623;SDS011;34422;45.802;16.114;2023-07-08T06:06:58;10.65;;;5.90;;
48623;SDS011;34422;45.802;16.114;2023-07-08T06:09:36;10.25;;;6.30;;
48623;SDS011;34422;45.802;16.114;2023-07-08T06:12:03;10.75;;;6.05;;
48623;SDS011;34422;45.802;16.114;2023-07-08T06:14:36;9.50;;;6.03;;
48623;SDS011;34422;45.802;16.114;2023-07-08T06:17:06;8.02;;;5.50;;
48623;SDS011;34422;45.802;16.114;2023-07-08T06:19:39;10.23;;;5.75;;
48623;SDS011;34422;45.802;16.114;2023-07-08T06:24:46;8.93;;;5.35;;
48623;SDS011;34422;45.802;16.114;2023-07-08T06:27:14;9.70;;;6.40;;
48623;SDS011;34422;45.802;16.114;2023-07-08T06:29:49;10.65;;;6.15;;
48623;SDS011;34422;45.802;16.114;2023-07-08T06:32:16;12.88;;;6.68;;
48623;SDS011;34422;45.802;16.114;2023-07-08T06:34:46;9.30;;;6.55;;
48623;SDS011;34422;45.802;16.114;2023-07-08T06:37:32;9.70;;;6.00;;
48623;SDS011;34422;45.802;16.114;2023-07-08T06:40:08;10.10;;;5.50;;
48623;SDS011;34422;45.802;16.114;2023-07-08T06:58:07;10.90;;;5.80;;
48623;SDS011;34422;45.802;16.114;2023-07-08T07:00:44;13.10;;;9.00;;
48623;SDS011;34422;45.802;16.114;2023-07-08T07:03:23;9.60;;;5.85;;
48623;SDS011;34422;45.802;16.114;2023-07-08T07:20:03;9.98;;;5.43;;
48623;SDS011;34422;45.802;16.114;2023-07-08T07:22:40;9.00;;;4.70;;
48623;SDS011;34422;45.802;16.114;2023-07-08T07:28:24;8.73;;;5.13;;
48623;SDS011;34422;45.802;16.114;2023-07-08T07:31:21;9.20;;;5.07;;
48623;SDS011;34422;45.802;16.114;2023-07-08T07:34:05;8.15;;;5.40;;
48623;SDS011;34422;45.802;16.114;2023-07-08T07:36:32;10.75;;;5.82;;
48623;SDS011;34422;45.802;16.114;2023-07-08T07:38:59;8.57;;;5.55;;
48623;SDS011;34422;45.802;16.114;2023-07-08T07:41:35;9.60;;;5.70;;
48623;SDS011;34422;45.802;16.114;2023-07-08T07:44:02;9.15;;;5.35;;
48623;SDS011;34422;45.802;16.114;2023-07-08T07:58:39;7.72;;;5.10;;
48623;SDS011;34422;45.802;16.114;2023-07-08T08:01:15;9.65;;;4.78;;
48623;SDS011;34422;45.802;16.114;2023-07-08T08:04:00;7.82;;;5.32;;
48623;SDS011;34422;45.802;16.114;2023-07-08T08:06:50;11.07;;;4.65;;
48623;SDS011;34422;45.802;16.114;2023-07-08T08:16:47;8.13;;;4.47;;
48623;SDS011;34422;45.802;16.114;2023-07-08T08:19:14;8.55;;;4.55;;
48623;SDS011;34422;45.802;16.114;2023-07-08T08:21:54;8.18;;;4.13;;
48623;SDS011;34422;45.802;16.114;2023-07-08T08:27:19;7.20;;;4.63;;
48623;SDS011;34422;45.802;16.114;2023-07-08T08:29:46;8.48;;;4.63;;
48623;SDS011;34422;45.802;16.114;2023-07-08T08:32:13;8.15;;;4.70;;
48623;SDS011;34422;45.802;16.114;2023-07-08T08:34:46;6.95;;;4.40;;
48623;SDS011;34422;45.802;16.114;2023-07-08T08:37:23;7.50;;;4.63;;
48623;SDS011;34422;45.802;16.114;2023-07-08T08:39:50;7.72;;;4.78;;
48623;SDS011;34422;45.802;16.114;2023-07-08T08:42:41;9.13;;;4.85;;
48623;SDS011;34422;45.802;16.114;2023-07-08T08:53:36;10.23;;;4.40;;
48623;SDS011;34422;45.802;16.114;2023-07-08T09:18:20;9.73;;;4.38;;
48623;SDS011;34422;45.802;16.114;2023-07-08T09:29:50;6.95;;;3.92;;
48623;SDS011;34422;45.802;16.114;2023-07-08T12:16:38;8.30;;;3.47;;
48623;SDS011;34422;45.802;16.114;2023-07-08T12:19:05;5.90;;;3.90;;
48623;SDS011;34422;45.802;16.114;2023-07-08T12:21:35;6.55;;;3.20;;
48623;SDS011;34422;45.802;16.114;2023-07-08T12:24:06;5.25;;;2.85;;
48623;SDS011;34422;45.802;16.114;2023-07-08T12:26:33;8.13;;;3.70;;
48623;SDS011;34422;45.802;16.114;2023-07-08T12:29:00;5.63;;;3.38;;
48623;SDS011;34422;45.802;16.114;2023-07-08T12:31:28;7.00;;;3.50;;
48623;SDS011;34422;45.802;16.114;2023-07-08T12:33:55;6.32;;;3.38;;
48623;SDS011;34422;45.802;16.114;2023-07-08T12:36:23;7.35;;;3.50;;
48623;SDS011;34422;45.802;16.114;2023-07-08T12:38:54;6.95;;;3.60;;
48623;SDS011;34422;45.802;16.114;2023-07-08T12:41:28;5.28;;;3.33;;
48623;SDS011;34422;45.802;16.114;2023-07-08T12:43:57;5.53;;;3.17;;
48623;SDS011;34422;45.802;16.114;2023-07-08T12:46:26;5.47;;;3.20;;
48623;SDS011;34422;45.802;16.114;2023-07-08T12:48:53;6.07;;;3.47;;
48623;SDS011;34422;45.802;16.114;2023-07-08T12:51:20;6.78;;;3.20;;
48623;SDS011;34422;45.802;16.114;2023-07-08T12:53:50;6.57;;;3.25;;
48623;SDS011;34422;45.802;16.114;2023-07-08T12:56:19;7.63;;;3.38;;
48623;SDS011;34422;45.802;16.114;2023-07-08T12:58:53;6.50;;;3.10;;
48623;SDS011;34422;45.802;16.114;2023-07-08T13:01:23;11.35;;;3.50;;
48623;SDS011;34422;45.802;16.114;2023-07-08T13:03:54;7.25;;;3.78;;
48623;SDS011;34422;45.802;16.114;2023-07-08T13:06:24;6.40;;;3.72;;
48623;SDS011;34422;45.802;16.114;2023-07-08T13:08:57;7.55;;;3.88;;
48623;SDS011;34422;45.802;16.114;2023-07-08T13:11:28;6.95;;;3.42;;
48623;SDS011;34422;45.802;16.114;2023-07-08T13:13:57;5.60;;;3.40;;
48623;SDS011;34422;45.802;16.114;2023-07-08T13:16:31;9.25;;;3.70;;
48623;SDS011;34422;45.802;16.114;2023-07-08T13:19:00;9.32;;;3.88;;
48623;SDS011;34422;45.802;16.114;2023-07-08T13:21:28;6.28;;;3.55;;
48623;SDS011;34422;45.802;16.114;2023-07-08T13:23:57;5.47;;;3.40;;
48623;SDS011;34422;45.802;16.114;2023-07-08T13:26:28;7.57;;;3.75;;
48623;SDS011;34422;45.802;16.114;2023-07-08T13:29:00;6.15;;;3.50;;
48623;SDS011;34422;45.802;16.114;2023-07-08T13:31:34;5.72;;;2.97;;
48623;SDS011;34422;45.802;16.114;2023-07-08T13:34:08;8.38;;;3.55;;
48623;SDS011;34422;45.802;16.114;2023-07-08T13:36:42;7.85;;;3.22;;
48623;SDS011;34422;45.802;16.114;2023-07-08T13:39:27;8.65;;;3.67;;
48623;SDS011;34422;45.802;16.114;2023-07-08T13:41:57;10.35;;;3.72;;
48623;SDS011;34422;45.802;16.114;2023-07-08T13:44:25;6.00;;;3.50;;
48623;SDS011;34422;45.802;16.114;2023-07-08T13:46:54;8.60;;;3.80;;
48623;SDS011;34422;45.802;16.114;2023-07-08T13:54:50;6.25;;;3.70;;
48623;SDS011;34422;45.802;16.114;2023-07-08T13:57:28;5.43;;;3.40;;
48623;SDS011;34422;45.802;16.114;2023-07-08T13:59:59;6.72;;;3.38;;
48623;SDS011;34422;45.802;16.114;2023-07-08T14:02:28;7.22;;;3.42;;
48623;SDS011;34422;45.802;16.114;2023-07-08T14:04:57;7.82;;;3.85;;
48623;SDS011;34422;45.802;16.114;2023-07-08T14:07:29;7.20;;;3.50;;
48623;SDS011;34422;45.802;16.114;2023-07-08T14:09:58;7.50;;;3.72;;
48623;SDS011;34422;45.802;16.114;2023-07-08T14:12:25;6.90;;;3.67;;
48623;SDS011;34422;45.802;16.114;2023-07-08T14:14:52;6.53;;;3.47;;
48623;SDS011;34422;45.802;16.114;2023-07-08T14:17:20;5.93;;;3.35;;
48623;SDS011;34422;45.802;16.114;2023-07-08T14:19:49;7.55;;;3.65;;
48623;SDS011;34422;45.802;16.114;2023-07-08T14:24:52;6.25;;;3.40;;
48623;SDS011;34422;45.802;16.114;2023-07-08T14:27:19;6.68;;;3.38;;
48623;SDS011;34422;45.802;16.114;2023-07-08T14:29:47;7.35;;;3.25;;
48623;SDS011;34422;45.802;16.114;2023-07-08T14:32:20;6.80;;;3.70;;
48623;SDS011;34422;45.802;16.114;2023-07-08T14:34:54;7.45;;;3.97;;
48623;SDS011;34422;45.802;16.114;2023-07-08T14:39:49;9.70;;;3.92;;
48623;SDS011;34422;45.802;16.114;2023-07-08T14:42:17;6.97;;;3.40;;
48623;SDS011;34422;45.802;16.114;2023-07-08T14:44:45;5.97;;;3.30;;
48623;SDS011;34422;45.802;16.114;2023-07-08T14:47:15;9.80;;;3.78;;
48623;SDS011;34422;45.802;16.114;2023-07-08T14:49:44;8.20;;;3.92;;
48623;SDS011;34422;45.802;16.114;2023-07-08T14:52:11;6.40;;;3.63;;
48623;SDS011;34422;45.802;16.114;2023-07-08T14:54:39;10.07;;;4.03;;
48623;SDS011;34422;45.802;16.114;2023-07-08T14:57:06;10.18;;;3.90;;
48623;SDS011;34422;45.802;16.114;2023-07-08T14:59:34;8.07;;;3.20;;
48623;SDS011;34422;45.802;16.114;2023-07-08T15:02:07;7.15;;;3.78;;
48623;SDS011;34422;45.802;16.114;2023-07-08T15:04:48;7.78;;;4.00;;
48623;SDS011;34422;45.802;16.114;2023-07-08T15:07:15;8.00;;;3.80;;
48623;SDS011;34422;45.802;16.114;2023-07-08T15:09:42;7.38;;;3.88;;
48623;SDS011;34422;45.802;16.114;2023-07-08T15:12:09;7.63;;;4.00;;
48623;SDS011;34422;45.802;16.114;2023-07-08T15:14:38;5.55;;;3.53;;
48623;SDS011;34422;45.802;16.114;2023-07-08T15:17:15;6.30;;;3.50;;
48623;SDS011;34422;45.802;16.114;2023-07-08T15:19:43;6.05;;;3.42;;
48623;SDS011;34422;45.802;16.114;2023-07-08T15:22:11;6.95;;;3.53;;
48623;SDS011;34422;45.802;16.114;2023-07-08T15:24:37;11.02;;;3.80;;
48623;SDS011;34422;45.802;16.114;2023-07-08T15:27:04;8.38;;;3.38;;
48623;SDS011;34422;45.802;16.114;2023-07-08T15:29:32;7.28;;;3.58;;
48623;SDS011;34422;45.802;16.114;2023-07-08T15:32:00;8.48;;;4.15;;
48623;SDS011;34422;45.802;16.114;2023-07-08T15:34:27;7.10;;;3.47;;
48623;SDS011;34422;45.802;16.114;2023-07-08T15:36:54;7.10;;;3.30;;
48623;SDS011;34422;45.802;16.114;2023-07-08T15:39:21;8.75;;;3.65;;
48623;SDS011;34422;45.802;16.114;2023-07-08T15:41:49;5.97;;;3.60;;
48623;SDS011;34422;45.802;16.114;2023-07-08T15:44:16;8.70;;;3.80;;
48623;SDS011;34422;45.802;16.114;2023-07-08T15:46:44;8.82;;;3.60;;
48623;SDS011;34422;45.802;16.114;2023-07-08T15:49:15;8.70;;;3.42;;
48623;SDS011;34422;45.802;16.114;2023-07-08T15:51:44;5.90;;;3.28;;
48623;SDS011;34422;45.802;16.114;2023-07-08T15:54:11;7.43;;;3.72;;
48623;SDS011;34422;45.802;16.114;2023-07-08T15:56:38;7.07;;;3.42;;
48623;SDS011;34422;45.802;16.114;2023-07-08T15:59:13;7.87;;;3.60;;
48623;SDS011;34422;45.802;16.114;2023-07-08T16:01:44;7.53;;;3.33;;
48623;SDS011;34422;45.802;16.114;2023-07-08T16:04:22;7.65;;;3.28;;
48623;SDS011;34422;45.802;16.114;2023-07-08T16:06:51;8.45;;;3.50;;
48623;SDS011;34422;45.802;16.114;2023-07-08T16:09:18;7.30;;;3.90;;
48623;SDS011;34422;45.802;16.114;2023-07-08T16:11:45;5.25;;;3.15;;
48623;SDS011;34422;45.802;16.114;2023-07-08T16:14:13;6.97;;;4.00;;
48623;SDS011;34422;45.802;16.114;2023-07-08T16:16:42;8.23;;;4.15;;
48623;SDS011;34422;45.802;16.114;2023-07-08T16:19:09;7.50;;;3.67;;
48623;SDS011;34422;45.802;16.114;2023-07-08T16:21:38;8.20;;;3.33;;
48623;SDS011;34422;45.802;16.114;2023-07-08T16:24:05;8.80;;;3.50;;
48623;SDS011;34422;45.802;16.114;2023-07-08T16:26:33;7.13;;;4.13;;
48623;SDS011;34422;45.802;16.114;2023-07-08T16:29:00;7.63;;;3.78;;
48623;SDS011;34422;45.802;16.114;2023-07-08T16:31:28;6.40;;;3.72;;
48623;SDS011;34422;45.802;16.114;2023-07-08T16:33:55;6.88;;;3.53;;
48623;SDS011;34422;45.802;16.114;2023-07-08T16:36:23;7.20;;;3.53;;
48623;SDS011;34422;45.802;16.114;2023-07-08T16:38:52;5.95;;;3.05;;
48623;SDS011;34422;45.802;16.114;2023-07-08T16:41:21;5.85;;;3.30;;
48623;SDS011;34422;45.802;16.114;2023-07-08T16:43:54;7.70;;;3.70;;
48623;SDS011;34422;45.802;16.114;2023-07-08T16:46:22;8.10;;;3.88;;
48623;SDS011;34422;45.802;16.114;2023-07-08T16:48:49;6.00;;;3.33;;
48623;SDS011;34422;45.802;16.114;2023-07-08T16:51:17;6.13;;;3.67;;
48623;SDS011;34422;45.802;16.114;2023-07-08T16:53:47;8.38;;;4.05;;
48623;SDS011;34422;45.802;16.114;2023-07-08T16:56:17;8.00;;;3.15;;
48623;SDS011;34422;45.802;16.114;2023-07-08T16:58:45;6.18;;;3.40;;
48623;SDS011;34422;45.802;16.114;2023-07-08T17:01:19;6.40;;;3.45;;
48623;SDS011;34422;45.802;16.114;2023-07-08T17:03:49;7.55;;;3.88;;
48623;SDS011;34422;45.802;16.114;2023-07-08T17:06:17;6.47;;;3.50;;
48623;SDS011;34422;45.802;16.114;2023-07-08T17:08:44;6.13;;;3.20;;
48623;SDS011;34422;45.802;16.114;2023-07-08T17:11:12;6.38;;;3.75;;
48623;SDS011;34422;45.802;16.114;2023-07-08T17:13:39;6.90;;;3.28;;
48623;SDS011;34422;45.802;16.114;2023-07-08T17:16:08;6.65;;;3.45;;
48623;SDS011;34422;45.802;16.114;2023-07-08T17:18:40;7.38;;;3.72;;
48623;SDS011;34422;45.802;16.114;2023-07-08T17:21:08;9.07;;;3.95;;
48623;SDS011;34422;45.802;16.114;2023-07-08T17:23:40;7.18;;;3.20;;
48623;SDS011;34422;45.802;16.114;2023-07-08T17:26:07;8.18;;;3.50;;
48623;SDS011;34422;45.802;16.114;2023-07-08T17:28:34;7.10;;;3.70;;
48623;SDS011;34422;45.802;16.114;2023-07-08T17:31:01;6.63;;;3.50;;
48623;SDS011;34422;45.802;16.114;2023-07-08T17:33:29;5.90;;;3.13;;
48623;SDS011;34422;45.802;16.114;2023-07-08T17:35:57;5.68;;;3.72;;
48623;SDS011;34422;45.802;16.114;2023-07-08T17:41:24;5.70;;;3.60;;
48623;SDS011;34422;45.802;16.114;2023-07-08T17:43:50;8.10;;;4.07;;
48623;SDS011;34422;45.802;16.114;2023-07-08T17:46:19;11.05;;;5.13;;
48623;SDS011;34422;45.802;16.114;2023-07-08T17:48:49;9.20;;;5.47;;
48623;SDS011;34422;45.802;16.114;2023-07-08T17:51:17;10.10;;;5.82;;
48623;SDS011;34422;45.802;16.114;2023-07-08T17:53:46;9.13;;;4.95;;
48623;SDS011;34422;45.802;16.114;2023-07-08T17:59:04;8.68;;;4.63;;
48623;SDS011;34422;45.802;16.114;2023-07-08T18:01:33;6.57;;;4.17;;
48623;SDS011;34422;45.802;16.114;2023-07-08T18:04:00;8.23;;;3.92;;
48623;SDS011;34422;45.802;16.114;2023-07-08T18:06:27;7.20;;;4.47;;
48623;SDS011;34422;45.802;16.114;2023-07-08T18:08:54;9.50;;;3.65;;
48623;SDS011;34422;45.802;16.114;2023-07-08T18:11:21;7.90;;;3.85;;
48623;SDS011;34422;45.802;16.114;2023-07-08T18:13:50;7.30;;;4.13;;
48623;SDS011;34422;45.802;16.114;2023-07-08T18:16:19;6.28;;;3.95;;
48623;SDS011;34422;45.802;16.114;2023-07-08T18:18:49;5.72;;;3.88;;
48623;SDS011;34422;45.802;16.114;2023-07-08T18:21:17;7.63;;;4.00;;
48623;SDS011;34422;45.802;16.114;2023-07-08T18:23:46;8.57;;;4.30;;
48623;SDS011;34422;45.802;16.114;2023-07-08T18:26:16;7.57;;;4.07;;
48623;SDS011;34422;45.802;16.114;2023-07-08T18:28:44;15.75;;;5.55;;
48623;SDS011;34422;45.802;16.114;2023-07-08T18:31:12;16.38;;;6.80;;
48623;SDS011;34422;45.802;16.114;2023-07-08T18:33:41;15.55;;;7.65;;
48623;SDS011;34422;45.802;16.114;2023-07-08T18:36:09;21.20;;;9.57;;
48623;SDS011;34422;45.802;16.114;2023-07-08T18:41:19;18.38;;;11.32;;
48623;SDS011;34422;45.802;16.114;2023-07-08T18:43:47;16.70;;;10.73;;
48623;SDS011;34422;45.802;16.114;2023-07-08T18:46:15;27.75;;;17.33;;
48623;SDS011;34422;45.802;16.114;2023-07-08T18:48:43;33.28;;;18.77;;
48623;SDS011;34422;45.802;16.114;2023-07-08T18:51:11;23.48;;;15.50;;
48623;SDS011;34422;45.802;16.114;2023-07-08T18:53:40;21.48;;;13.70;;
48623;SDS011;34422;45.802;16.114;2023-07-08T18:56:11;21.98;;;12.35;;
48623;SDS011;34422;45.802;16.114;2023-07-08T18:58:39;21.73;;;11.07;;
48623;SDS011;34422;45.802;16.114;2023-07-08T19:01:39;20.10;;;9.85;;
48623;SDS011;34422;45.802;16.114;2023-07-08T19:04:01;16.13;;;9.45;;
48623;SDS011;34422;45.802;16.114;2023-07-08T19:06:27;13.95;;;8.00;;
48623;SDS011;34422;45.802;16.114;2023-07-08T19:08:54;14.13;;;8.38;;
48623;SDS011;34422;45.802;16.114;2023-07-08T19:11:23;11.27;;;5.95;;
48623;SDS011;34422;45.802;16.114;2023-07-08T19:13:52;12.60;;;7.10;;
48623;SDS011;34422;45.802;16.114;2023-07-08T19:16:19;11.57;;;6.05;;
48623;SDS011;34422;45.802;16.114;2023-07-08T19:18:49;9.77;;;5.72;;
48623;SDS011;34422;45.802;16.114;2023-07-08T19:21:23;10.32;;;5.38;;
48623;SDS011;34422;45.802;16.114;2023-07-08T19:23:53;10.38;;;4.70;;
48623;SDS011;34422;45.802;16.114;2023-07-08T19:26:22;8.73;;;4.80;;
48623;SDS011;34422;45.802;16.114;2023-07-08T19:28:51;10.05;;;5.97;;
48623;SDS011;34422;45.802;16.114;2023-07-08T19:31:19;18.50;;;11.07;;
48623;SDS011;34422;45.802;16.114;2023-07-08T19:33:49;14.32;;;7.90;;
48623;SDS011;34422;45.802;16.114;2023-07-08T19:36:18;16.25;;;9.40;;
48623;SDS011;34422;45.802;16.114;2023-07-08T19:38:46;17.75;;;10.52;;
48623;SDS011;34422;45.802;16.114;2023-07-08T19:41:14;14.25;;;9.63;;
48623;SDS011;34422;45.802;16.114;2023-07-08T19:43:43;19.50;;;10.98;;
48623;SDS011;34422;45.802;16.114;2023-07-08T19:46:13;21.85;;;10.50;;
48623;SDS011;34422;45.802;16.114;2023-07-08T19:48:42;18.85;;;11.40;;
48623;SDS011;34422;45.802;16.114;2023-07-08T19:51:10;21.58;;;11.30;;
48623;SDS011;34422;45.802;16.114;2023-07-08T19:53:38;21.65;;;10.60;;
48623;SDS011;34422;45.802;16.114;2023-07-08T19:56:12;22.10;;;11.35;;
48623;SDS011;34422;45.802;16.114;2023-07-08T19:58:41;17.00;;;10.32;;
48623;SDS011;34422;45.802;16.114;2023-07-08T20:01:09;21.55;;;10.13;;
48623;SDS011;34422;45.802;16.114;2023-07-08T20:03:36;21.10;;;10.48;;